createdAt,value
2019-03-27T00:01:23.843Z,10.70
2019-03-27T00:03:51.260Z,12.05
2019-03-27T00:06:18.644Z,9.57
2019-03-27T00:08:46.059Z,10.68
2019-03-27T00:11:15.988Z,11.75
2019-03-27T00:13:40.888Z,8.82
2019-03-27T00:16:08.326Z,9.18
2019-03-27T00:18:35.714Z,11.73
2019-03-27T00:21:04.563Z,10.50
2019-03-27T00:23:31.959Z,14.35
2019-03-27T00:26:00.150Z,9.77
2019-03-27T00:28:27.560Z,11.43
2019-03-27T00:30:54.952Z,9.13
2019-03-27T00:33:22.399Z,8.80
2019-03-27T00:35:49.816Z,9.23
2019-03-27T00:38:17.203Z,9.38
2019-03-27T00:40:44.623Z,9.95
2019-03-27T00:43:12.039Z,9.40
2019-03-27T00:45:39.487Z,9.88
2019-03-27T00:48:06.898Z,10.38
2019-03-27T00:50:34.296Z,10.02
2019-03-27T00:53:01.763Z,9.95
2019-03-27T00:55:29.178Z,11.02
2019-03-27T00:57:56.572Z,8.75
2019-03-27T01:00:31.487Z,10.55
2019-03-27T01:02:58.961Z,8.35
2019-03-27T01:05:26.357Z,9.13
2019-03-27T01:07:53.755Z,9.65
2019-03-27T01:10:21.159Z,10.10
2019-03-27T01:12:48.560Z,9.05
2019-03-27T01:15:15.956Z,17.33
2019-03-27T01:17:43.370Z,12.73
2019-03-27T01:20:10.792Z,11.40
2019-03-27T01:22:38.211Z,11.77
2019-03-27T01:25:05.660Z,10.30
2019-03-27T01:27:35.497Z,9.73
2019-03-27T01:30:00.512Z,9.27
2019-03-27T01:32:27.917Z,8.90
2019-03-27T01:34:55.328Z,10.02
2019-03-27T01:37:22.726Z,9.20
2019-03-27T01:39:50.150Z,9.30
2019-03-27T01:42:17.559Z,10.65
2019-03-27T01:44:44.959Z,9.75
2019-03-27T01:47:12.951Z,9.48
2019-03-27T01:49:40.458Z,10.90
2019-03-27T01:52:08.222Z,11.43
2019-03-27T01:54:35.259Z,8.90
2019-03-27T01:57:02.655Z,9.27
2019-03-27T01:59:30.052Z,8.95
2019-03-27T02:01:57.439Z,9.60
2019-03-27T02:04:24.844Z,9.40
2019-03-27T02:06:52.238Z,8.98
2019-03-27T02:09:19.659Z,10.95
2019-03-27T02:11:47.055Z,9.15
2019-03-27T02:14:14.506Z,9.30
2019-03-27T02:16:41.907Z,15.88
2019-03-27T02:19:09.298Z,12.57
2019-03-27T02:21:37.061Z,9.25
2019-03-27T02:24:04.468Z,16.08
2019-03-27T02:26:31.878Z,10.38
2019-03-27T02:28:59.357Z,10.30
2019-03-27T02:31:26.757Z,9.30
2019-03-27T02:33:54.164Z,9.70
2019-03-27T02:36:21.573Z,10.38
2019-03-27T02:38:49.154Z,10.80
2019-03-27T02:41:16.548Z,11.07
2019-03-27T02:43:43.958Z,10.52
2019-03-27T02:46:23.912Z,8.60
2019-03-27T02:48:38.772Z,9.50
2019-03-27T02:51:06.164Z,9.52
2019-03-27T02:53:33.572Z,12.50
2019-03-27T02:56:01.119Z,12.30
2019-03-27T02:58:28.576Z,11.70
2019-03-27T03:00:56.050Z,10.55
2019-03-27T03:03:23.513Z,14.30
2019-03-27T03:05:50.900Z,9.05
2019-03-27T03:08:18.793Z,10.90
2019-03-27T03:10:46.236Z,10.30
2019-03-27T03:13:13.620Z,9.70
2019-03-27T03:15:41.024Z,13.30
2019-03-27T03:18:08.475Z,10.00
2019-03-27T03:20:35.986Z,12.73
2019-03-27T03:23:03.385Z,10.00
2019-03-27T03:25:30.785Z,9.70
2019-03-27T03:27:58.188Z,10.93
2019-03-27T03:30:25.592Z,9.75
2019-03-27T03:32:52.997Z,10.10
2019-03-27T03:35:20.458Z,11.23
2019-03-27T03:37:47.862Z,9.25
2019-03-27T03:40:15.316Z,10.13
2019-03-27T03:42:42.711Z,11.63
2019-03-27T03:45:10.122Z,14.32
2019-03-27T03:47:37.568Z,15.05
2019-03-27T03:50:05.031Z,9.98
2019-03-27T03:52:32.439Z,13.82
2019-03-27T03:54:59.852Z,9.80
2019-03-27T03:57:27.249Z,11.15
2019-03-27T03:59:54.660Z,10.57
2019-03-27T04:02:22.101Z,11.75
2019-03-27T04:04:49.689Z,9.77
2019-03-27T04:07:17.091Z,10.10
2019-03-27T04:09:45.371Z,9.07
2019-03-27T04:12:12.789Z,11.07
2019-03-27T04:14:40.188Z,10.50
2019-03-27T04:17:16.834Z,12.70
2019-03-27T04:19:35.600Z,10.82
2019-03-27T04:22:02.989Z,11.10
2019-03-27T04:24:30.408Z,26.75
2019-03-27T04:26:57.822Z,17.52
2019-03-27T04:29:25.226Z,11.90
2019-03-27T04:31:52.629Z,12.07
2019-03-27T04:34:20.024Z,12.55
2019-03-27T04:36:47.436Z,10.95
2019-03-27T04:39:14.825Z,10.45
2019-03-27T04:41:42.234Z,9.85
2019-03-27T04:44:09.663Z,13.02
2019-03-27T04:46:37.071Z,11.88
2019-03-27T04:49:07.669Z,12.32
2019-03-27T04:51:31.889Z,14.00
2019-03-27T04:53:59.382Z,11.02
2019-03-27T04:56:26.782Z,9.85
2019-03-27T04:58:54.255Z,12.37
2019-03-27T05:01:21.645Z,11.77
2019-03-27T05:03:49.044Z,9.90
2019-03-27T05:06:16.467Z,14.73
2019-03-27T05:08:44.003Z,12.90
2019-03-27T05:11:11.405Z,14.30
2019-03-27T05:13:39.685Z,11.55
2019-03-27T05:16:07.086Z,11.18
2019-03-27T05:18:34.540Z,12.35
2019-03-27T05:21:01.975Z,14.20
2019-03-27T05:23:29.398Z,12.80
2019-03-27T05:25:56.808Z,12.93
2019-03-27T05:28:24.211Z,14.52
2019-03-27T05:30:51.631Z,9.38
2019-03-27T05:33:19.051Z,13.30
2019-03-27T05:35:46.520Z,12.77
2019-03-27T05:38:13.990Z,13.70
2019-03-27T05:40:41.416Z,14.95
2019-03-27T05:43:08.817Z,11.52
2019-03-27T05:45:36.218Z,13.15
2019-03-27T05:48:03.651Z,11.38
2019-03-27T05:50:31.063Z,14.68
2019-03-27T05:52:58.481Z,13.10
2019-03-27T05:55:26.691Z,11.10
2019-03-27T05:57:53.303Z,11.90
2019-03-27T06:00:20.704Z,14.07
2019-03-27T06:02:48.237Z,16.75
2019-03-27T06:05:15.635Z,14.85
2019-03-27T06:07:43.075Z,14.77
2019-03-27T06:10:10.548Z,15.90
2019-03-27T06:12:37.949Z,18.60
2019-03-27T06:15:05.422Z,22.58
2019-03-27T06:17:32.875Z,21.62
2019-03-27T06:20:00.369Z,17.10
2019-03-27T06:22:27.710Z,15.23
2019-03-27T06:24:55.118Z,18.98
2019-03-27T06:27:22.533Z,20.77
2019-03-27T06:29:49.942Z,23.27
2019-03-27T06:32:17.354Z,15.55
2019-03-27T06:34:44.766Z,13.05
2019-03-27T06:37:12.167Z,17.10
2019-03-27T06:39:39.571Z,20.42
2019-03-27T06:42:07.030Z,16.92
2019-03-27T06:44:34.440Z,18.60
2019-03-27T06:47:01.839Z,18.10
2019-03-27T06:49:30.175Z,12.13
2019-03-27T06:51:57.648Z,16.73
2019-03-27T06:54:25.044Z,21.52
2019-03-27T06:56:52.467Z,21.33
2019-03-27T06:59:19.989Z,19.62
2019-03-27T07:01:47.397Z,17.80
2019-03-27T07:04:14.794Z,16.65
2019-03-27T07:06:42.226Z,16.08
2019-03-27T07:09:09.630Z,18.98
2019-03-27T07:11:37.177Z,33.95
2019-03-27T07:14:04.590Z,16.45
2019-03-27T07:16:31.986Z,21.55
2019-03-27T07:18:59.550Z,16.98
2019-03-27T07:21:26.963Z,18.58
2019-03-27T07:23:54.485Z,19.73
2019-03-27T07:26:21.875Z,26.87
2019-03-27T07:28:49.413Z,15.65
2019-03-27T07:31:16.828Z,17.55
2019-03-27T07:33:44.228Z,12.45
2019-03-27T07:36:11.803Z,23.08
2019-03-27T07:38:39.333Z,30.33
2019-03-27T07:41:06.732Z,12.05
2019-03-27T07:43:41.491Z,21.15
2019-03-27T07:48:36.660Z,21.35
2019-03-27T07:51:04.112Z,15.25
2019-03-27T07:55:58.453Z,16.83
2019-03-27T07:58:25.852Z,20.05
2019-03-27T08:00:53.273Z,18.50
2019-03-27T08:03:20.717Z,15.40
2019-03-27T08:05:48.150Z,17.00
2019-03-27T08:08:15.572Z,15.43
2019-03-27T08:10:43.932Z,16.50
2019-03-27T08:13:11.439Z,16.55
2019-03-27T08:15:40.822Z,14.27
2019-03-27T08:18:06.275Z,20.15
2019-03-27T08:20:33.699Z,15.43
2019-03-27T08:25:28.081Z,15.10
2019-03-27T08:27:55.527Z,17.10
2019-03-27T08:30:28.838Z,15.87
2019-03-27T08:32:56.383Z,21.15
2019-03-27T08:35:23.870Z,17.73
2019-03-27T08:37:52.317Z,19.67
2019-03-27T08:40:19.747Z,17.23
2019-03-27T08:42:47.225Z,16.35
2019-03-27T08:45:15.660Z,17.40
2019-03-27T08:47:43.056Z,16.40
2019-03-27T08:50:10.460Z,16.57
2019-03-27T08:52:38.020Z,22.20
2019-03-27T08:55:05.429Z,25.27
2019-03-27T09:00:00.046Z,16.10
2019-03-27T09:02:27.508Z,17.10
2019-03-27T09:04:54.946Z,14.55
2019-03-27T09:07:22.342Z,19.75
2019-03-27T09:09:49.759Z,17.98
2019-03-27T09:12:17.165Z,17.15
2019-03-27T09:14:44.585Z,19.52
2019-03-27T09:22:05.995Z,17.23
2019-03-27T09:24:33.710Z,18.58
2019-03-27T09:27:01.243Z,18.25
2019-03-27T09:29:28.660Z,16.75
2019-03-27T09:31:56.070Z,14.52
2019-03-27T09:34:23.482Z,20.48
2019-03-27T09:36:51.025Z,22.45
2019-03-27T09:39:18.428Z,15.35
2019-03-27T09:41:46.012Z,17.95
2019-03-27T09:44:13.426Z,17.37
2019-03-27T09:46:40.823Z,23.75
2019-03-27T09:49:09.555Z,13.25
2019-03-27T09:51:36.977Z,17.23
2019-03-27T09:54:04.373Z,23.87
2019-03-27T09:56:31.820Z,20.12
2019-03-27T09:58:59.246Z,20.33
2019-03-27T10:01:26.647Z,15.60
2019-03-27T10:03:54.050Z,23.50
2019-03-27T10:06:21.594Z,20.77
2019-03-27T10:08:49.190Z,20.27
2019-03-27T10:11:16.613Z,26.77
2019-03-27T10:13:44.031Z,27.42
2019-03-27T10:16:11.626Z,18.25
2019-03-27T10:18:39.045Z,23.50
2019-03-27T10:21:06.468Z,20.12
2019-03-27T10:23:33.895Z,22.00
2019-03-27T10:26:01.347Z,22.10
2019-03-27T10:28:28.789Z,19.30
2019-03-27T10:30:56.201Z,20.65
2019-03-27T10:33:23.628Z,22.70
2019-03-27T10:35:51.111Z,20.95
2019-03-27T10:38:18.533Z,19.33
2019-03-27T10:40:45.959Z,18.02
2019-03-27T10:43:13.369Z,21.37
2019-03-27T10:45:40.800Z,26.75
2019-03-27T10:48:08.371Z,20.33
2019-03-27T10:50:35.782Z,20.60
2019-03-27T10:53:03.197Z,20.25
2019-03-27T10:55:34.260Z,28.27
2019-03-27T10:57:58.191Z,24.08
2019-03-27T11:00:25.615Z,32.47
2019-03-27T11:02:53.106Z,20.52
2019-03-27T11:05:20.517Z,26.02
2019-03-27T11:07:48.021Z,29.15
2019-03-27T11:15:13.087Z,24.60
2019-03-27T11:17:40.499Z,18.30
2019-03-27T11:22:34.934Z,22.35
2019-03-27T11:25:02.392Z,21.58
2019-03-27T11:27:29.808Z,21.00
2019-03-27T11:29:57.226Z,19.60
2019-03-27T11:32:24.723Z,24.83
2019-03-27T11:34:53.134Z,24.80
2019-03-27T11:37:20.558Z,23.38
2019-03-27T11:39:48.067Z,21.20
2019-03-27T11:42:15.675Z,22.95
2019-03-27T11:44:43.140Z,21.20
2019-03-27T11:47:10.568Z,27.92
2019-03-27T11:49:38.029Z,27.48
2019-03-27T11:52:05.507Z,22.87
2019-03-27T11:54:32.930Z,29.60
2019-03-27T11:57:00.358Z,20.10
2019-03-27T11:59:27.811Z,20.35
2019-03-27T12:01:55.233Z,32.00
2019-03-27T12:04:22.650Z,21.25
2019-03-27T12:06:50.066Z,19.90
2019-03-27T12:09:17.464Z,20.70
2019-03-27T12:11:44.878Z,21.00
2019-03-27T12:14:12.512Z,25.42
2019-03-27T12:19:06.681Z,21.60
2019-03-27T12:28:55.939Z,21.20
2019-03-27T12:31:23.343Z,32.40
2019-03-27T12:33:51.334Z,24.27
2019-03-27T12:36:18.744Z,22.85
2019-03-27T12:38:46.144Z,25.10
2019-03-27T12:41:14.551Z,23.50
2019-03-27T12:43:42.034Z,20.15
2019-03-27T12:46:09.422Z,22.15
2019-03-27T12:48:36.844Z,21.20
2019-03-27T12:51:12.669Z,20.80
2019-03-27T12:53:31.713Z,19.65
2019-03-27T12:55:59.121Z,21.60
2019-03-27T12:58:26.547Z,32.22
2019-03-27T13:00:53.975Z,19.52
2019-03-27T13:03:21.433Z,21.95
2019-03-27T13:05:48.899Z,32.65
2019-03-27T13:08:16.319Z,21.20
2019-03-27T13:10:43.726Z,20.92
2019-03-27T13:13:11.134Z,18.70
2019-03-27T13:15:38.547Z,21.42
2019-03-27T13:18:06.018Z,19.30
2019-03-27T13:20:33.460Z,24.50
2019-03-27T13:23:00.890Z,28.73
2019-03-27T13:25:28.488Z,23.55
2019-03-27T13:27:55.921Z,20.73
2019-03-27T13:30:23.372Z,21.95
2019-03-27T13:32:50.842Z,18.73
2019-03-27T13:35:18.278Z,16.75
2019-03-27T13:37:45.669Z,19.08
2019-03-27T13:40:13.130Z,16.70
2019-03-27T13:42:40.547Z,34.00
2019-03-27T13:45:08.028Z,18.48
2019-03-27T13:47:35.435Z,19.75
2019-03-27T13:50:02.849Z,21.75
2019-03-27T13:52:30.255Z,22.98
2019-03-27T13:54:57.668Z,20.25
2019-03-27T13:57:25.875Z,18.48
2019-03-27T13:59:53.420Z,16.55
2019-03-27T14:02:20.851Z,20.40
2019-03-27T14:04:48.301Z,23.77
2019-03-27T14:07:16.361Z,30.33
2019-03-27T14:09:47.741Z,22.40
2019-03-27T14:12:15.334Z,17.45
2019-03-27T14:14:50.374Z,19.08
2019-03-27T14:17:10.535Z,21.93
2019-03-27T14:19:37.993Z,17.75
2019-03-27T14:22:05.405Z,19.05
2019-03-27T14:24:32.932Z,19.85
2019-03-27T14:27:00.365Z,17.40
2019-03-27T14:29:28.210Z,28.08
2019-03-27T14:31:55.684Z,27.73
2019-03-27T14:34:23.220Z,19.92
2019-03-27T14:36:50.656Z,17.02
2019-03-27T14:39:18.135Z,20.70
2019-03-27T14:41:45.799Z,18.62
2019-03-27T14:44:13.209Z,17.80
2019-03-27T14:46:40.622Z,20.95
2019-03-27T14:49:08.159Z,18.73
2019-03-27T14:51:35.559Z,19.90
2019-03-27T14:54:02.996Z,22.70
2019-03-27T14:56:30.404Z,19.00
2019-03-27T14:58:57.858Z,23.65
2019-03-27T15:01:25.288Z,22.60
2019-03-27T15:03:52.676Z,16.55
2019-03-27T15:06:20.170Z,21.98
2019-03-27T15:08:47.674Z,16.40
2019-03-27T15:11:15.578Z,23.73
2019-03-27T15:13:43.104Z,21.58
2019-03-27T15:16:10.517Z,21.23
2019-03-27T15:18:37.924Z,19.35
2019-03-27T15:21:05.341Z,19.17
2019-03-27T15:23:32.909Z,17.98
2019-03-27T15:26:00.507Z,18.85
2019-03-27T15:28:28.044Z,20.48
2019-03-27T15:30:55.377Z,24.20
2019-03-27T15:33:22.848Z,25.10
2019-03-27T15:35:51.078Z,20.08
2019-03-27T15:38:18.538Z,18.08
2019-03-27T15:40:45.976Z,23.85
2019-03-27T15:43:13.409Z,17.60
2019-03-27T15:45:40.878Z,21.17
2019-03-27T15:48:08.321Z,17.73
2019-03-27T15:50:35.742Z,17.35
2019-03-27T15:53:03.155Z,25.98
2019-03-27T15:55:30.577Z,21.00
2019-03-27T15:57:58.071Z,26.50
2019-03-27T16:00:25.491Z,21.77
2019-03-27T16:02:52.955Z,15.95
2019-03-27T16:05:21.447Z,21.08
2019-03-27T16:07:48.872Z,20.27
2019-03-27T16:10:18.369Z,15.25
2019-03-27T16:12:43.733Z,14.48
2019-03-27T16:15:11.169Z,17.42
2019-03-27T16:17:38.615Z,17.75
2019-03-27T16:20:06.091Z,13.48
2019-03-27T16:22:33.626Z,16.73
2019-03-27T16:25:01.197Z,15.13
2019-03-27T16:27:28.663Z,16.70
2019-03-27T16:29:56.087Z,15.18
2019-03-27T16:32:24.089Z,14.10
2019-03-27T16:34:51.511Z,12.43
2019-03-27T16:37:20.046Z,16.00
2019-03-27T16:39:48.395Z,19.08
2019-03-27T16:42:15.800Z,17.90
2019-03-27T16:44:43.212Z,18.70
2019-03-27T16:47:10.619Z,15.48
2019-03-27T16:49:38.141Z,14.10
2019-03-27T16:52:05.689Z,14.02
2019-03-27T16:54:33.175Z,15.82
2019-03-27T16:57:00.626Z,14.10
2019-03-27T16:59:28.072Z,12.13
2019-03-27T17:01:55.481Z,13.52
2019-03-27T17:04:23.004Z,17.53
2019-03-27T17:06:50.494Z,11.50
2019-03-27T17:09:17.900Z,14.57
2019-03-27T17:11:45.564Z,13.32
2019-03-27T17:14:13.010Z,13.68
2019-03-27T17:16:40.417Z,17.37
2019-03-27T17:19:07.836Z,12.50
2019-03-27T17:21:35.262Z,12.68
2019-03-27T17:24:02.722Z,10.25
2019-03-27T17:26:30.151Z,11.52
2019-03-27T17:28:57.549Z,12.00
2019-03-27T17:31:24.970Z,12.32
2019-03-27T17:33:52.436Z,10.77
2019-03-27T17:36:19.921Z,19.37
2019-03-27T17:38:47.389Z,11.88
2019-03-27T17:41:14.808Z,10.68
2019-03-27T17:43:42.232Z,11.73
2019-03-27T17:46:09.803Z,11.07
2019-03-27T17:48:37.317Z,10.20
2019-03-27T17:51:04.797Z,11.50
2019-03-27T17:53:32.349Z,14.60
2019-03-27T17:55:59.645Z,13.82
2019-03-27T17:58:27.141Z,11.90
2019-03-27T18:00:54.557Z,13.40
2019-03-27T18:03:22.075Z,18.77
2019-03-27T18:05:49.493Z,13.10
2019-03-27T18:08:17.002Z,12.05
2019-03-27T18:10:44.588Z,10.93
2019-03-27T18:13:12.067Z,14.98
2019-03-27T18:15:39.499Z,12.40
2019-03-27T18:18:06.944Z,10.25
2019-03-27T18:20:34.360Z,9.30
2019-03-27T18:23:01.795Z,10.93
2019-03-27T18:25:29.204Z,11.45
2019-03-27T18:27:58.494Z,14.18
2019-03-27T18:30:24.153Z,13.75
2019-03-27T18:32:51.564Z,10.52
2019-03-27T18:35:18.983Z,14.30
2019-03-27T18:37:46.504Z,15.98
2019-03-27T18:40:14.855Z,10.40
2019-03-27T18:42:42.328Z,10.63
2019-03-27T18:45:09.751Z,11.60
2019-03-27T18:47:37.192Z,13.18
2019-03-27T18:50:05.381Z,12.35
2019-03-27T18:52:32.770Z,13.50
2019-03-27T18:55:00.371Z,12.80
2019-03-27T18:57:27.623Z,14.02
2019-03-27T18:59:55.067Z,12.73
2019-03-27T19:02:22.638Z,12.68
2019-03-27T19:04:50.110Z,11.70
2019-03-27T19:07:17.502Z,12.65
2019-03-27T19:09:45.148Z,14.13
2019-03-27T19:12:12.609Z,19.80
2019-03-27T19:14:40.057Z,10.75
2019-03-27T19:17:07.513Z,11.93
2019-03-27T19:19:35.108Z,11.73
2019-03-27T19:22:02.516Z,14.23
2019-03-27T19:24:29.954Z,10.15
2019-03-27T19:26:57.346Z,10.93
2019-03-27T19:29:24.800Z,15.85
2019-03-27T19:31:52.269Z,16.80
2019-03-27T19:34:19.663Z,10.85
2019-03-27T19:36:47.110Z,13.62
2019-03-27T19:39:14.520Z,12.07
2019-03-27T19:41:41.975Z,10.93
2019-03-27T19:44:09.389Z,11.70
2019-03-27T19:46:36.812Z,11.40
2019-03-27T19:49:04.231Z,11.55
2019-03-27T19:51:31.626Z,12.63
2019-03-27T19:53:59.045Z,11.57
2019-03-27T19:56:26.504Z,13.90
2019-03-27T19:58:53.918Z,12.25
2019-03-27T20:01:21.339Z,11.95
2019-03-27T20:03:48.730Z,15.95
2019-03-27T20:06:16.171Z,13.50
2019-03-27T20:08:43.588Z,12.15
2019-03-27T20:11:11.016Z,14.30
2019-03-27T20:13:38.426Z,12.00
2019-03-27T20:16:05.839Z,13.30
2019-03-27T20:18:33.267Z,14.20
2019-03-27T20:21:00.699Z,13.62
2019-03-27T20:23:28.944Z,12.80
2019-03-27T20:25:56.343Z,12.77
2019-03-27T20:28:23.772Z,10.50
2019-03-27T20:30:51.180Z,12.63
2019-03-27T20:33:18.792Z,12.15
2019-03-27T20:35:46.267Z,11.20
2019-03-27T20:38:13.732Z,13.18
2019-03-27T20:40:41.158Z,14.18
2019-03-27T20:43:08.623Z,13.62
2019-03-27T20:45:36.016Z,13.15
2019-03-27T20:48:03.433Z,13.68
2019-03-27T20:50:30.905Z,12.02
2019-03-27T20:52:58.341Z,11.77
2019-03-27T20:55:30.406Z,10.48
2019-03-27T20:57:53.326Z,15.43
2019-03-27T21:00:20.728Z,11.82
2019-03-27T21:02:48.278Z,12.98
2019-03-27T21:05:15.688Z,14.40
2019-03-27T21:07:43.106Z,12.30
2019-03-27T21:10:10.552Z,11.45
2019-03-27T21:12:37.955Z,13.80
2019-03-27T21:15:05.369Z,12.18
2019-03-27T21:17:32.791Z,13.45
2019-03-27T21:20:00.390Z,12.98
2019-03-27T21:22:28.581Z,13.50
2019-03-27T21:25:07.932Z,15.25
2019-03-27T21:27:23.560Z,11.15
2019-03-27T21:29:51.020Z,12.18
2019-03-27T21:34:52.210Z,11.10
2019-03-27T21:37:19.587Z,11.18
2019-03-27T21:39:46.996Z,13.45
2019-03-27T21:42:14.456Z,12.70
2019-03-27T21:44:41.851Z,9.73
2019-03-27T21:47:09.274Z,10.50
2019-03-27T21:49:37.828Z,13.15
2019-03-27T21:52:05.244Z,13.40
2019-03-27T21:54:32.734Z,10.95
2019-03-27T21:57:00.146Z,10.70
2019-03-27T21:59:27.593Z,12.93
2019-03-27T22:01:55.003Z,13.73
2019-03-27T22:04:22.423Z,10.55
2019-03-27T22:06:49.836Z,10.45
2019-03-27T22:09:17.263Z,12.88
2019-03-27T22:11:44.792Z,12.55
2019-03-27T22:14:12.187Z,9.98
2019-03-27T22:16:39.594Z,12.57
2019-03-27T22:19:07.017Z,10.52
2019-03-27T22:21:34.410Z,12.80
2019-03-27T22:24:01.875Z,11.60
2019-03-27T22:26:29.313Z,12.73
2019-03-27T22:28:56.710Z,9.73
2019-03-27T22:31:24.143Z,10.73
2019-03-27T22:33:51.582Z,9.50
2019-03-27T22:36:19.896Z,11.75
2019-03-27T22:38:47.309Z,15.07
2019-03-27T22:41:14.725Z,19.25
2019-03-27T22:43:42.137Z,10.35
2019-03-27T22:46:09.807Z,12.35
2019-03-27T22:48:37.212Z,10.75
2019-03-27T22:51:04.639Z,11.12
2019-03-27T22:53:32.031Z,12.13
2019-03-27T22:55:59.450Z,12.32
2019-03-27T22:58:26.843Z,10.30
2019-03-27T23:00:54.257Z,11.25
2019-03-27T23:03:21.652Z,10.10
2019-03-27T23:05:49.039Z,10.65
2019-03-27T23:08:16.488Z,10.85
2019-03-27T23:10:43.884Z,10.82
2019-03-27T23:13:11.363Z,11.05
2019-03-27T23:15:38.818Z,10.35
2019-03-27T23:18:06.266Z,9.77
2019-03-27T23:20:33.711Z,11.45
2019-03-27T23:23:01.099Z,11.45
2019-03-27T23:25:29.262Z,11.65
2019-03-27T23:27:56.667Z,11.48
2019-03-27T23:30:24.469Z,10.90
2019-03-27T23:32:51.918Z,10.90
2019-03-27T23:35:19.322Z,11.30
2019-03-27T23:37:46.720Z,11.73
2019-03-27T23:40:14.175Z,11.85
2019-03-27T23:42:41.599Z,13.20
2019-03-27T23:45:09.091Z,12.77
2019-03-27T23:47:36.497Z,12.52
2019-03-27T23:50:04.490Z,11.98
2019-03-27T23:52:31.892Z,11.10
2019-03-27T23:54:59.298Z,13.65
2019-03-27T23:57:26.733Z,11.18
2019-03-27T23:59:54.229Z,16.45
